sensor_id;sensor_type;location;lat;lon;timestamp;P1;durP1;ratioP1;P2;durP2;ratioP2
10847;SDS011;5477;48.806;9.154;2023-06-19T00:02:21;8.33;;;6.13;;
10847;SDS011;5477;48.806;9.154;2023-06-19T00:04:49;7.43;;;6.43;;
10847;SDS011;5477;48.806;9.154;2023-06-19T00:07:17;6.57;;;5.97;;
10847;SDS011;5477;48.806;9.154;2023-06-19T00:09:45;8.13;;;6.33;;
10847;SDS011;5477;48.806;9.154;2023-06-19T00:12:14;7.47;;;6.10;;
10847;SDS011;5477;48.806;9.154;2023-06-19T00:14:41;7.17;;;6.37;;
10847;SDS011;5477;48.806;9.154;2023-06-19T00:17:11;8.47;;;6.07;;
10847;SDS011;5477;48.806;9.154;2023-06-19T00:19:43;8.57;;;6.40;;
10847;SDS011;5477;48.806;9.154;2023-06-19T00:22:11;6.83;;;6.13;;
10847;SDS011;5477;48.806;9.154;2023-06-19T00:24:39;6.47;;;5.87;;
10847;SDS011;5477;48.806;9.154;2023-06-19T00:27:07;7.10;;;6.40;;
10847;SDS011;5477;48.806;9.154;2023-06-19T00:29:35;6.97;;;6.27;;
10847;SDS011;5477;48.806;9.154;2023-06-19T00:32:04;6.80;;;6.10;;
10847;SDS011;5477;48.806;9.154;2023-06-19T00:34:34;7.03;;;5.77;;
10847;SDS011;5477;48.806;9.154;2023-06-19T00:37:04;7.10;;;6.40;;
10847;SDS011;5477;48.806;9.154;2023-06-19T00:39:32;8.43;;;5.93;;
10847;SDS011;5477;48.806;9.154;2023-06-19T00:42:00;7.03;;;6.20;;
10847;SDS011;5477;48.806;9.154;2023-06-19T00:44:28;6.93;;;6.23;;
10847;SDS011;5477;48.806;9.154;2023-06-19T00:46:57;7.60;;;6.23;;
10847;SDS011;5477;48.806;9.154;2023-06-19T00:49:28;6.70;;;5.87;;
10847;SDS011;5477;48.806;9.154;2023-06-19T00:51:59;6.47;;;5.87;;
10847;SDS011;5477;48.806;9.154;2023-06-19T00:54:27;6.50;;;5.90;;
10847;SDS011;5477;48.806;9.154;2023-06-19T00:56:57;6.90;;;5.90;;
10847;SDS011;5477;48.806;9.154;2023-06-19T00:59:25;6.27;;;5.47;;
10847;SDS011;5477;48.806;9.154;2023-06-19T01:01:55;7.17;;;5.63;;
10847;SDS011;5477;48.806;9.154;2023-06-19T01:04:24;7.10;;;5.87;;
10847;SDS011;5477;48.806;9.154;2023-06-19T01:06:53;7.70;;;6.37;;
10847;SDS011;5477;48.806;9.154;2023-06-19T01:09:28;9.37;;;6.10;;
10847;SDS011;5477;48.806;9.154;2023-06-19T01:11:59;5.73;;;5.20;;
10847;SDS011;5477;48.806;9.154;2023-06-19T01:14:35;7.87;;;5.10;;
10847;SDS011;5477;48.806;9.154;2023-06-19T01:17:06;8.47;;;4.80;;
10847;SDS011;5477;48.806;9.154;2023-06-19T01:19:35;7.17;;;4.50;;
10847;SDS011;5477;48.806;9.154;2023-06-19T01:22:05;8.43;;;4.50;;
10847;SDS011;5477;48.806;9.154;2023-06-19T01:24:34;7.43;;;5.03;;
10847;SDS011;5477;48.806;9.154;2023-06-19T01:27:03;9.13;;;4.80;;
10847;SDS011;5477;48.806;9.154;2023-06-19T01:29:31;9.30;;;4.53;;
10847;SDS011;5477;48.806;9.154;2023-06-19T01:31:59;4.73;;;4.27;;
10847;SDS011;5477;48.806;9.154;2023-06-19T01:34:33;6.40;;;4.20;;
10847;SDS011;5477;48.806;9.154;2023-06-19T01:37:07;6.67;;;4.50;;
10847;SDS011;5477;48.806;9.154;2023-06-19T01:39:38;7.83;;;4.00;;
10847;SDS011;5477;48.806;9.154;2023-06-19T01:42:10;5.60;;;4.33;;
10847;SDS011;5477;48.806;9.154;2023-06-19T01:44:38;4.87;;;4.37;;
10847;SDS011;5477;48.806;9.154;2023-06-19T01:47:10;5.60;;;3.90;;
10847;SDS011;5477;48.806;9.154;2023-06-19T01:49:41;8.03;;;4.40;;
10847;SDS011;5477;48.806;9.154;2023-06-19T01:52:10;8.40;;;4.27;;
10847;SDS011;5477;48.806;9.154;2023-06-19T01:54:38;6.43;;;4.10;;
10847;SDS011;5477;48.806;9.154;2023-06-19T01:57:07;4.37;;;3.97;;
10847;SDS011;5477;48.806;9.154;2023-06-19T01:59:36;4.13;;;3.73;;
10847;SDS011;5477;48.806;9.154;2023-06-19T02:02:04;5.30;;;3.90;;
10847;SDS011;5477;48.806;9.154;2023-06-19T02:04:33;4.23;;;3.63;;
10847;SDS011;5477;48.806;9.154;2023-06-19T02:07:02;5.93;;;3.60;;
10847;SDS011;5477;48.806;9.154;2023-06-19T02:09:31;5.03;;;3.90;;
10847;SDS011;5477;48.806;9.154;2023-06-19T02:11:59;4.77;;;3.90;;
10847;SDS011;5477;48.806;9.154;2023-06-19T02:14:27;5.47;;;4.03;;
10847;SDS011;5477;48.806;9.154;2023-06-19T02:16:55;6.17;;;3.67;;
10847;SDS011;5477;48.806;9.154;2023-06-19T02:19:23;4.40;;;4.00;;
10847;SDS011;5477;48.806;9.154;2023-06-19T02:21:51;4.30;;;3.53;;
10847;SDS011;5477;48.806;9.154;2023-06-19T02:24:19;5.10;;;4.00;;
10847;SDS011;5477;48.806;9.154;2023-06-19T02:26:49;3.90;;;3.60;;
10847;SDS011;5477;48.806;9.154;2023-06-19T02:29:17;5.37;;;3.63;;
10847;SDS011;5477;48.806;9.154;2023-06-19T02:31:46;4.00;;;3.53;;
10847;SDS011;5477;48.806;9.154;2023-06-19T02:34:14;5.53;;;3.70;;
10847;SDS011;5477;48.806;9.154;2023-06-19T02:36:42;4.40;;;3.53;;
10847;SDS011;5477;48.806;9.154;2023-06-19T02:39:13;4.20;;;3.80;;
10847;SDS011;5477;48.806;9.154;2023-06-19T02:41:41;4.53;;;3.60;;
10847;SDS011;5477;48.806;9.154;2023-06-19T02:44:13;5.23;;;3.97;;
10847;SDS011;5477;48.806;9.154;2023-06-19T02:46:42;4.67;;;3.60;;
10847;SDS011;5477;48.806;9.154;2023-06-19T02:49:10;3.50;;;3.20;;
10847;SDS011;5477;48.806;9.154;2023-06-19T02:51:38;3.90;;;3.50;;
10847;SDS011;5477;48.806;9.154;2023-06-19T02:54:07;4.03;;;3.63;;
10847;SDS011;5477;48.806;9.154;2023-06-19T02:56:35;4.00;;;3.37;;
10847;SDS011;5477;48.806;9.154;2023-06-19T02:59:04;3.60;;;3.30;;
10847;SDS011;5477;48.806;9.154;2023-06-19T03:01:34;3.40;;;3.10;;
10847;SDS011;5477;48.806;9.154;2023-06-19T03:04:02;4.27;;;3.30;;
10847;SDS011;5477;48.806;9.154;2023-06-19T03:06:30;5.27;;;3.27;;
10847;SDS011;5477;48.806;9.154;2023-06-19T03:08:59;3.87;;;3.47;;
10847;SDS011;5477;48.806;9.154;2023-06-19T03:11:27;3.90;;;3.60;;
10847;SDS011;5477;48.806;9.154;2023-06-19T03:13:56;4.67;;;3.27;;
10847;SDS011;5477;48.806;9.154;2023-06-19T03:16:24;6.50;;;3.90;;
10847;SDS011;5477;48.806;9.154;2023-06-19T03:18:53;5.17;;;3.87;;
10847;SDS011;5477;48.806;9.154;2023-06-19T03:21:22;4.40;;;3.77;;
10847;SDS011;5477;48.806;9.154;2023-06-19T03:23:51;3.93;;;3.53;;
10847;SDS011;5477;48.806;9.154;2023-06-19T03:26:21;3.87;;;2.90;;
10847;SDS011;5477;48.806;9.154;2023-06-19T03:28:51;5.30;;;3.80;;
10847;SDS011;5477;48.806;9.154;2023-06-19T03:31:21;3.90;;;3.50;;
10847;SDS011;5477;48.806;9.154;2023-06-19T03:33:50;3.97;;;3.30;;
10847;SDS011;5477;48.806;9.154;2023-06-19T03:36:20;4.43;;;3.73;;
10847;SDS011;5477;48.806;9.154;2023-06-19T03:38:50;3.80;;;3.30;;
10847;SDS011;5477;48.806;9.154;2023-06-19T03:41:23;3.53;;;3.23;;
10847;SDS011;5477;48.806;9.154;2023-06-19T03:43:53;4.07;;;3.20;;
10847;SDS011;5477;48.806;9.154;2023-06-19T03:46:24;3.80;;;3.33;;
10847;SDS011;5477;48.806;9.154;2023-06-19T03:48:52;3.70;;;3.40;;
10847;SDS011;5477;48.806;9.154;2023-06-19T03:51:21;3.30;;;3.00;;
10847;SDS011;5477;48.806;9.154;2023-06-19T03:53:49;3.33;;;3.03;;
10847;SDS011;5477;48.806;9.154;2023-06-19T03:56:18;3.40;;;2.80;;
10847;SDS011;5477;48.806;9.154;2023-06-19T03:58:46;3.03;;;2.80;;
10847;SDS011;5477;48.806;9.154;2023-06-19T04:01:14;3.33;;;2.87;;
10847;SDS011;5477;48.806;9.154;2023-06-19T04:03:42;3.20;;;2.70;;
10847;SDS011;5477;48.806;9.154;2023-06-19T04:06:10;3.17;;;2.80;;
10847;SDS011;5477;48.806;9.154;2023-06-19T04:08:40;3.80;;;2.87;;
10847;SDS011;5477;48.806;9.154;2023-06-19T04:11:11;3.37;;;3.07;;
10847;SDS011;5477;48.806;9.154;2023-06-19T04:13:40;3.80;;;2.73;;
10847;SDS011;5477;48.806;9.154;2023-06-19T04:16:08;3.90;;;2.63;;
10847;SDS011;5477;48.806;9.154;2023-06-19T04:18:36;3.00;;;2.70;;
10847;SDS011;5477;48.806;9.154;2023-06-19T04:21:04;3.63;;;2.47;;
10847;SDS011;5477;48.806;9.154;2023-06-19T04:23:32;4.83;;;2.70;;
10847;SDS011;5477;48.806;9.154;2023-06-19T04:26:02;2.97;;;2.70;;
10847;SDS011;5477;48.806;9.154;2023-06-19T04:28:31;3.23;;;2.80;;
10847;SDS011;5477;48.806;9.154;2023-06-19T04:30:59;3.20;;;2.80;;
10847;SDS011;5477;48.806;9.154;2023-06-19T04:33:27;2.63;;;2.43;;
10847;SDS011;5477;48.806;9.154;2023-06-19T04:35:56;3.13;;;2.83;;
10847;SDS011;5477;48.806;9.154;2023-06-19T04:38:24;3.20;;;2.70;;
10847;SDS011;5477;48.806;9.154;2023-06-19T04:40:52;5.73;;;2.80;;
10847;SDS011;5477;48.806;9.154;2023-06-19T04:43:21;3.67;;;2.70;;
10847;SDS011;5477;48.806;9.154;2023-06-19T04:45:50;3.93;;;2.83;;
10847;SDS011;5477;48.806;9.154;2023-06-19T04:48:19;3.63;;;2.87;;
10847;SDS011;5477;48.806;9.154;2023-06-19T04:50:52;4.13;;;2.80;;
10847;SDS011;5477;48.806;9.154;2023-06-19T04:53:22;2.90;;;2.70;;
10847;SDS011;5477;48.806;9.154;2023-06-19T04:55:50;4.13;;;2.90;;
10847;SDS011;5477;48.806;9.154;2023-06-19T04:58:22;4.00;;;3.00;;
10847;SDS011;5477;48.806;9.154;2023-06-19T05:00:50;3.20;;;2.90;;
10847;SDS011;5477;48.806;9.154;2023-06-19T05:03:18;3.30;;;2.73;;
10847;SDS011;5477;48.806;9.154;2023-06-19T05:05:48;4.27;;;3.00;;
10847;SDS011;5477;48.806;9.154;2023-06-19T05:08:16;4.83;;;2.70;;
10847;SDS011;5477;48.806;9.154;2023-06-19T05:10:44;3.03;;;2.63;;
10847;SDS011;5477;48.806;9.154;2023-06-19T05:13:12;3.20;;;2.80;;
10847;SDS011;5477;48.806;9.154;2023-06-19T05:15:41;3.60;;;3.17;;
10847;SDS011;5477;48.806;9.154;2023-06-19T05:18:09;2.80;;;2.60;;
10847;SDS011;5477;48.806;9.154;2023-06-19T05:20:37;2.80;;;2.60;;
10847;SDS011;5477;48.806;9.154;2023-06-19T05:23:05;5.17;;;2.80;;
10847;SDS011;5477;48.806;9.154;2023-06-19T05:25:33;3.33;;;3.00;;
10847;SDS011;5477;48.806;9.154;2023-06-19T05:28:01;2.90;;;2.60;;
10847;SDS011;5477;48.806;9.154;2023-06-19T05:30:31;2.70;;;2.47;;
10847;SDS011;5477;48.806;9.154;2023-06-19T05:33:02;6.33;;;3.00;;
10847;SDS011;5477;48.806;9.154;2023-06-19T05:35:30;4.37;;;2.70;;
10847;SDS011;5477;48.806;9.154;2023-06-19T05:37:58;2.87;;;2.67;;
10847;SDS011;5477;48.806;9.154;2023-06-19T05:40:26;2.73;;;2.53;;
10847;SDS011;5477;48.806;9.154;2023-06-19T05:42:55;3.23;;;2.93;;
10847;SDS011;5477;48.806;9.154;2023-06-19T05:45:23;4.93;;;3.00;;
10847;SDS011;5477;48.806;9.154;2023-06-19T05:47:51;5.03;;;3.90;;
10847;SDS011;5477;48.806;9.154;2023-06-19T05:50:20;3.80;;;3.40;;
10847;SDS011;5477;48.806;9.154;2023-06-19T05:52:49;3.90;;;3.00;;
10847;SDS011;5477;48.806;9.154;2023-06-19T05:55:17;3.23;;;2.73;;
10847;SDS011;5477;48.806;9.154;2023-06-19T05:57:45;3.47;;;2.77;;
10847;SDS011;5477;48.806;9.154;2023-06-19T06:00:13;3.20;;;2.90;;
10847;SDS011;5477;48.806;9.154;2023-06-19T06:02:42;4.17;;;2.80;;
10847;SDS011;5477;48.806;9.154;2023-06-19T06:05:10;5.23;;;2.97;;
10847;SDS011;5477;48.806;9.154;2023-06-19T06:07:40;2.97;;;2.63;;
10847;SDS011;5477;48.806;9.154;2023-06-19T06:10:09;3.80;;;3.07;;
10847;SDS011;5477;48.806;9.154;2023-06-19T06:12:37;4.70;;;3.20;;
10847;SDS011;5477;48.806;9.154;2023-06-19T06:15:06;3.57;;;3.00;;
10847;SDS011;5477;48.806;9.154;2023-06-19T06:17:34;3.77;;;2.87;;
10847;SDS011;5477;48.806;9.154;2023-06-19T06:20:02;3.40;;;3.10;;
10847;SDS011;5477;48.806;9.154;2023-06-19T06:22:33;3.30;;;3.00;;
10847;SDS011;5477;48.806;9.154;2023-06-19T06:25:03;3.07;;;2.77;;
10847;SDS011;5477;48.806;9.154;2023-06-19T06:27:31;3.40;;;2.60;;
10847;SDS011;5477;48.806;9.154;2023-06-19T06:29:59;2.93;;;2.70;;
10847;SDS011;5477;48.806;9.154;2023-06-19T06:32:28;3.10;;;2.67;;
10847;SDS011;5477;48.806;9.154;2023-06-19T06:34:57;4.80;;;2.83;;
10847;SDS011;5477;48.806;9.154;2023-06-19T06:37:26;2.63;;;2.43;;
10847;SDS011;5477;48.806;9.154;2023-06-19T06:39:53;3.17;;;2.70;;
10847;SDS011;5477;48.806;9.154;2023-06-19T06:42:23;2.67;;;2.47;;
10847;SDS011;5477;48.806;9.154;2023-06-19T06:44:51;2.47;;;2.10;;
10847;SDS011;5477;48.806;9.154;2023-06-19T06:47:19;2.67;;;2.47;;
10847;SDS011;5477;48.806;9.154;2023-06-19T06:49:47;2.93;;;2.63;;
10847;SDS011;5477;48.806;9.154;2023-06-19T06:52:15;3.13;;;2.20;;
10847;SDS011;5477;48.806;9.154;2023-06-19T06:54:43;2.90;;;2.60;;
10847;SDS011;5477;48.806;9.154;2023-06-19T06:57:11;2.60;;;2.07;;
10847;SDS011;5477;48.806;9.154;2023-06-19T06:59:40;2.40;;;2.20;;
10847;SDS011;5477;48.806;9.154;2023-06-19T07:02:08;2.27;;;2.07;;
10847;SDS011;5477;48.806;9.154;2023-06-19T07:04:36;3.13;;;2.47;;
10847;SDS011;5477;48.806;9.154;2023-06-19T07:07:04;2.50;;;2.30;;
10847;SDS011;5477;48.806;9.154;2023-06-19T07:09:35;2.43;;;2.13;;
10847;SDS011;5477;48.806;9.154;2023-06-19T07:12:03;3.10;;;2.17;;
10847;SDS011;5477;48.806;9.154;2023-06-19T07:14:33;4.83;;;2.17;;
10847;SDS011;5477;48.806;9.154;2023-06-19T07:17:02;4.10;;;2.57;;
10847;SDS011;5477;48.806;9.154;2023-06-19T07:19:33;3.03;;;2.17;;
10847;SDS011;5477;48.806;9.154;2023-06-19T07:22:01;2.43;;;2.17;;
10847;SDS011;5477;48.806;9.154;2023-06-19T07:24:29;2.63;;;2.43;;
10847;SDS011;5477;48.806;9.154;2023-06-19T07:26:57;3.07;;;2.30;;
10847;SDS011;5477;48.806;9.154;2023-06-19T07:29:25;2.53;;;2.33;;
10847;SDS011;5477;48.806;9.154;2023-06-19T07:31:53;2.70;;;2.50;;
10847;SDS011;5477;48.806;9.154;2023-06-19T07:34:23;2.67;;;2.30;;
10847;SDS011;5477;48.806;9.154;2023-06-19T07:36:51;2.40;;;2.20;;
10847;SDS011;5477;48.806;9.154;2023-06-19T07:39:19;2.33;;;2.13;;
10847;SDS011;5477;48.806;9.154;2023-06-19T07:41:47;2.20;;;2.00;;
10847;SDS011;5477;48.806;9.154;2023-06-19T07:44:15;2.50;;;2.30;;
10847;SDS011;5477;48.806;9.154;2023-06-19T07:46:44;2.43;;;2.13;;
10847;SDS011;5477;48.806;9.154;2023-06-19T07:49:12;2.40;;;2.10;;
10847;SDS011;5477;48.806;9.154;2023-06-19T07:51:41;2.37;;;2.17;;
10847;SDS011;5477;48.806;9.154;2023-06-19T07:54:09;2.37;;;1.90;;
10847;SDS011;5477;48.806;9.154;2023-06-19T07:56:38;2.30;;;2.10;;
10847;SDS011;5477;48.806;9.154;2023-06-19T07:59:07;2.30;;;2.10;;
10847;SDS011;5477;48.806;9.154;2023-06-19T08:01:35;2.70;;;1.90;;
10847;SDS011;5477;48.806;9.154;2023-06-19T08:04:04;1.90;;;1.80;;
10847;SDS011;5477;48.806;9.154;2023-06-19T08:06:33;2.00;;;1.90;;
10847;SDS011;5477;48.806;9.154;2023-06-19T08:09:02;2.03;;;1.83;;
10847;SDS011;5477;48.806;9.154;2023-06-19T08:11:30;4.03;;;2.00;;
10847;SDS011;5477;48.806;9.154;2023-06-19T08:13:58;2.47;;;2.27;;
10847;SDS011;5477;48.806;9.154;2023-06-19T08:16:26;2.63;;;2.42;;
10847;SDS011;5477;48.806;9.154;2023-06-19T08:18:54;3.00;;;1.90;;
10847;SDS011;5477;48.806;9.154;2023-06-19T08:21:22;3.10;;;2.20;;
10847;SDS011;5477;48.806;9.154;2023-06-19T08:23:50;2.35;;;2.15;;
10847;SDS011;5477;48.806;9.154;2023-06-19T08:26:20;2.47;;;2.15;;
10847;SDS011;5477;48.806;9.154;2023-06-19T08:28:48;3.60;;;2.20;;
10847;SDS011;5477;48.806;9.154;2023-06-19T08:31:15;2.20;;;2.00;;
10847;SDS011;5477;48.806;9.154;2023-06-19T08:33:44;3.03;;;2.80;;
10847;SDS011;5477;48.806;9.154;2023-06-19T08:36:16;2.92;;;2.50;;
10847;SDS011;5477;48.806;9.154;2023-06-19T08:38:44;3.22;;;2.33;;
10847;SDS011;5477;48.806;9.154;2023-06-19T08:41:15;2.40;;;2.20;;
10847;SDS011;5477;48.806;9.154;2023-06-19T08:43:46;3.03;;;2.80;;
10847;SDS011;5477;48.806;9.154;2023-06-19T08:46:15;3.05;;;2.45;;
10847;SDS011;5477;48.806;9.154;2023-06-19T08:48:49;2.90;;;2.23;;
10847;SDS011;5477;48.806;9.154;2023-06-19T08:51:17;2.93;;;2.50;;
10847;SDS011;5477;48.806;9.154;2023-06-19T08:53:45;2.80;;;2.40;;
10847;SDS011;5477;48.806;9.154;2023-06-19T08:56:17;3.55;;;2.30;;
10847;SDS011;5477;48.806;9.154;2023-06-19T08:58:46;3.93;;;2.60;;
10847;SDS011;5477;48.806;9.154;2023-06-19T09:01:16;2.30;;;2.10;;
10847;SDS011;5477;48.806;9.154;2023-06-19T09:03:45;5.63;;;2.53;;
10847;SDS011;5477;48.806;9.154;2023-06-19T09:06:18;3.15;;;2.53;;
10847;SDS011;5477;48.806;9.154;2023-06-19T09:08:57;3.38;;;2.70;;
10847;SDS011;5477;48.806;9.154;2023-06-19T09:11:25;2.50;;;2.30;;
10847;SDS011;5477;48.806;9.154;2023-06-19T09:13:57;3.47;;;2.45;;
10847;SDS011;5477;48.806;9.154;2023-06-19T09:16:26;2.67;;;2.47;;
10847;SDS011;5477;48.806;9.154;2023-06-19T09:19:04;3.10;;;2.35;;
10847;SDS011;5477;48.806;9.154;2023-06-19T09:21:34;3.90;;;2.30;;
10847;SDS011;5477;48.806;9.154;2023-06-19T09:24:04;3.22;;;2.90;;
10847;SDS011;5477;48.806;9.154;2023-06-19T09:26:34;3.33;;;2.80;;
10847;SDS011;5477;48.806;9.154;2023-06-19T09:29:13;3.65;;;2.65;;
10847;SDS011;5477;48.806;9.154;2023-06-19T09:31:47;2.85;;;2.40;;
10847;SDS011;5477;48.806;9.154;2023-06-19T09:34:15;2.95;;;2.70;;
10847;SDS011;5477;48.806;9.154;2023-06-19T09:36:42;2.72;;;2.50;;
10847;SDS011;5477;48.806;9.154;2023-06-19T09:39:12;4.13;;;2.65;;
10847;SDS011;5477;48.806;9.154;2023-06-19T09:41:43;2.92;;;2.72;;
10847;SDS011;5477;48.806;9.154;2023-06-19T09:44:15;2.60;;;2.40;;
10847;SDS011;5477;48.806;9.154;2023-06-19T09:46:48;2.88;;;2.45;;
10847;SDS011;5477;48.806;9.154;2023-06-19T09:49:18;3.70;;;2.70;;
10847;SDS011;5477;48.806;9.154;2023-06-19T09:51:48;2.70;;;2.50;;
10847;SDS011;5477;48.806;9.154;2023-06-19T09:54:17;4.00;;;2.63;;
10847;SDS011;5477;48.806;9.154;2023-06-19T09:56:47;2.90;;;2.70;;
10847;SDS011;5477;48.806;9.154;2023-06-19T09:59:18;3.03;;;2.25;;
10847;SDS011;5477;48.806;9.154;2023-06-19T10:01:47;3.28;;;2.53;;
10847;SDS011;5477;48.806;9.154;2023-06-19T10:04:16;3.88;;;2.58;;
10847;SDS011;5477;48.806;9.154;2023-06-19T10:06:45;2.88;;;2.67;;
10847;SDS011;5477;48.806;9.154;2023-06-19T10:09:15;2.67;;;2.47;;
10847;SDS011;5477;48.806;9.154;2023-06-19T10:11:46;2.80;;;2.60;;
10847;SDS011;5477;48.806;9.154;2023-06-19T10:14:14;2.70;;;2.50;;
10847;SDS011;5477;48.806;9.154;2023-06-19T10:16:46;3.70;;;2.80;;
10847;SDS011;5477;48.806;9.154;2023-06-19T10:19:15;3.35;;;2.60;;
10847;SDS011;5477;48.806;9.154;2023-06-19T10:21:46;3.60;;;2.72;;
10847;SDS011;5477;48.806;9.154;2023-06-19T10:24:15;3.40;;;3.10;;
10847;SDS011;5477;48.806;9.154;2023-06-19T10:26:55;4.65;;;2.60;;
10847;SDS011;5477;48.806;9.154;2023-06-19T10:29:25;4.05;;;2.92;;
10847;SDS011;5477;48.806;9.154;2023-06-19T10:31:56;3.47;;;3.17;;
10847;SDS011;5477;48.806;9.154;2023-06-19T10:34:32;4.80;;;3.00;;
10847;SDS011;5477;48.806;9.154;2023-06-19T10:37:01;3.30;;;3.00;;
10847;SDS011;5477;48.806;9.154;2023-06-19T10:39:30;4.22;;;2.85;;
10847;SDS011;5477;48.806;9.154;2023-06-19T10:41:58;3.83;;;3.17;;
10847;SDS011;5477;48.806;9.154;2023-06-19T10:44:28;5.47;;;2.65;;
10847;SDS011;5477;48.806;9.154;2023-06-19T10:46:57;5.32;;;2.90;;
10847;SDS011;5477;48.806;9.154;2023-06-19T10:49:25;4.25;;;2.78;;
10847;SDS011;5477;48.806;9.154;2023-06-19T10:51:53;3.65;;;2.83;;
10847;SDS011;5477;48.806;9.154;2023-06-19T10:54:25;4.47;;;2.95;;
10847;SDS011;5477;48.806;9.154;2023-06-19T10:56:53;3.20;;;2.90;;
10847;SDS011;5477;48.806;9.154;2023-06-19T10:59:21;2.90;;;2.65;;
10847;SDS011;5477;48.806;9.154;2023-06-19T11:01:49;5.20;;;2.80;;
10847;SDS011;5477;48.806;9.154;2023-06-19T11:04:19;5.85;;;2.70;;
10847;SDS011;5477;48.806;9.154;2023-06-19T11:06:49;2.75;;;2.55;;
10847;SDS011;5477;48.806;9.154;2023-06-19T11:09:17;5.60;;;2.90;;
10847;SDS011;5477;48.806;9.154;2023-06-19T11:11:46;3.80;;;2.85;;
10847;SDS011;5477;48.806;9.154;2023-06-19T11:14:15;3.83;;;2.63;;
10847;SDS011;5477;48.806;9.154;2023-06-19T11:16:44;2.90;;;2.70;;
10847;SDS011;5477;48.806;9.154;2023-06-19T11:19:14;4.88;;;2.78;;
10847;SDS011;5477;48.806;9.154;2023-06-19T11:21:46;3.55;;;2.55;;
10847;SDS011;5477;48.806;9.154;2023-06-19T11:24:15;3.47;;;2.78;;
10847;SDS011;5477;48.806;9.154;2023-06-19T11:26:45;3.00;;;2.70;;
10847;SDS011;5477;48.806;9.154;2023-06-19T11:29:17;4.07;;;2.78;;
10847;SDS011;5477;48.806;9.154;2023-06-19T11:31:47;5.30;;;3.00;;
10847;SDS011;5477;48.806;9.154;2023-06-19T11:34:16;3.47;;;2.70;;
10847;SDS011;5477;48.806;9.154;2023-06-19T11:36:51;3.50;;;2.78;;
10847;SDS011;5477;48.806;9.154;2023-06-19T11:39:19;5.53;;;2.72;;
10847;SDS011;5477;48.806;9.154;2023-06-19T11:41:47;2.72;;;2.50;;
10847;SDS011;5477;48.806;9.154;2023-06-19T11:44:20;3.30;;;3.00;;
10847;SDS011;5477;48.806;9.154;2023-06-19T11:46:48;3.20;;;2.90;;
10847;SDS011;5477;48.806;9.154;2023-06-19T11:49:17;3.83;;;2.67;;
10847;SDS011;5477;48.806;9.154;2023-06-19T11:51:46;3.97;;;2.65;;
10847;SDS011;5477;48.806;9.154;2023-06-19T11:54:16;2.80;;;2.60;;
10847;SDS011;5477;48.806;9.154;2023-06-19T11:56:44;3.50;;;3.20;;
10847;SDS011;5477;48.806;9.154;2023-06-19T11:59:13;2.92;;;2.65;;
10847;SDS011;5477;48.806;9.154;2023-06-19T12:01:42;2.95;;;2.67;;
10847;SDS011;5477;48.806;9.154;2023-06-19T12:04:10;2.90;;;2.70;;
10847;SDS011;5477;48.806;9.154;2023-06-19T12:06:38;3.33;;;3.08;;
10847;SDS011;5477;48.806;9.154;2023-06-19T12:09:06;4.53;;;2.95;;
10847;SDS011;5477;48.806;9.154;2023-06-19T12:11:37;4.00;;;2.72;;
10847;SDS011;5477;48.806;9.154;2023-06-19T12:14:05;3.97;;;3.08;;
10847;SDS011;5477;48.806;9.154;2023-06-19T12:16:33;3.95;;;2.80;;
10847;SDS011;5477;48.806;9.154;2023-06-19T12:19:01;3.30;;;2.60;;
10847;SDS011;5477;48.806;9.154;2023-06-19T12:21:29;2.97;;;2.70;;
10847;SDS011;5477;48.806;9.154;2023-06-19T12:24:05;3.25;;;2.95;;
10847;SDS011;5477;48.806;9.154;2023-06-19T12:26:34;2.90;;;2.70;;
10847;SDS011;5477;48.806;9.154;2023-06-19T12:29:05;5.47;;;2.88;;
10847;SDS011;5477;48.806;9.154;2023-06-19T12:31:34;2.90;;;2.63;;
10847;SDS011;5477;48.806;9.154;2023-06-19T12:34:03;2.97;;;2.75;;
10847;SDS011;5477;48.806;9.154;2023-06-19T12:36:52;2.85;;;2.65;;
10847;SDS011;5477;48.806;9.154;2023-06-19T12:39:20;2.90;;;2.70;;
10847;SDS011;5477;48.806;9.154;2023-06-19T12:41:48;4.25;;;2.78;;
10847;SDS011;5477;48.806;9.154;2023-06-19T12:44:18;3.85;;;2.75;;
10847;SDS011;5477;48.806;9.154;2023-06-19T12:46:46;3.10;;;2.80;;
10847;SDS011;5477;48.806;9.154;2023-06-19T12:49:14;4.03;;;2.80;;
10847;SDS011;5477;48.806;9.154;2023-06-19T12:51:42;3.20;;;2.90;;
10847;SDS011;5477;48.806;9.154;2023-06-19T12:54:10;3.90;;;2.67;;
10847;SDS011;5477;48.806;9.154;2023-06-19T12:56:38;5.15;;;3.10;;
10847;SDS011;5477;48.806;9.154;2023-06-19T12:59:06;4.65;;;2.40;;
10847;SDS011;5477;48.806;9.154;2023-06-19T13:01:35;2.97;;;2.60;;
10847;SDS011;5477;48.806;9.154;2023-06-19T13:04:04;3.20;;;2.80;;
10847;SDS011;5477;48.806;9.154;2023-06-19T13:06:32;4.50;;;2.92;;
10847;SDS011;5477;48.806;9.154;2023-06-19T13:09:00;2.70;;;2.50;;
10847;SDS011;5477;48.806;9.154;2023-06-19T13:11:32;3.05;;;2.75;;
10847;SDS011;5477;48.806;9.154;2023-06-19T13:14:00;3.10;;;2.50;;
10847;SDS011;5477;48.806;9.154;2023-06-19T13:16:30;5.22;;;2.58;;
10847;SDS011;5477;48.806;9.154;2023-06-19T13:19:13;6.35;;;2.78;;
10847;SDS011;5477;48.806;9.154;2023-06-19T13:21:41;6.07;;;3.00;;
10847;SDS011;5477;48.806;9.154;2023-06-19T13:24:10;4.07;;;2.92;;
10847;SDS011;5477;48.806;9.154;2023-06-19T13:26:39;4.85;;;3.15;;
10847;SDS011;5477;48.806;9.154;2023-06-19T13:29:07;3.90;;;2.83;;
10847;SDS011;5477;48.806;9.154;2023-06-19T13:31:35;4.80;;;3.00;;
10847;SDS011;5477;48.806;9.154;2023-06-19T13:34:04;3.63;;;2.90;;
10847;SDS011;5477;48.806;9.154;2023-06-19T13:36:33;3.45;;;2.88;;
10847;SDS011;5477;48.806;9.154;2023-06-19T13:39:01;3.45;;;2.75;;
10847;SDS011;5477;48.806;9.154;2023-06-19T13:41:30;2.88;;;2.58;;
10847;SDS011;5477;48.806;9.154;2023-06-19T13:43:59;6.63;;;2.85;;
10847;SDS011;5477;48.806;9.154;2023-06-19T13:46:27;3.50;;;2.97;;
10847;SDS011;5477;48.806;9.154;2023-06-19T13:48:55;4.10;;;2.65;;
10847;SDS011;5477;48.806;9.154;2023-06-19T13:51:23;6.22;;;3.60;;
10847;SDS011;5477;48.806;9.154;2023-06-19T13:53:53;4.30;;;2.80;;
10847;SDS011;5477;48.806;9.154;2023-06-19T13:56:21;3.55;;;2.70;;
10847;SDS011;5477;48.806;9.154;2023-06-19T13:58:50;3.13;;;2.70;;
10847;SDS011;5477;48.806;9.154;2023-06-19T14:01:18;3.05;;;2.50;;
10847;SDS011;5477;48.806;9.154;2023-06-19T14:03:46;3.55;;;2.50;;
10847;SDS011;5477;48.806;9.154;2023-06-19T14:06:14;3.35;;;2.60;;
10847;SDS011;5477;48.806;9.154;2023-06-19T14:08:42;2.90;;;2.60;;
10847;SDS011;5477;48.806;9.154;2023-06-19T14:11:12;2.97;;;2.60;;
10847;SDS011;5477;48.806;9.154;2023-06-19T14:13:40;2.80;;;2.60;;
10847;SDS011;5477;48.806;9.154;2023-06-19T14:16:09;4.00;;;2.70;;
10847;SDS011;5477;48.806;9.154;2023-06-19T14:18:37;3.55;;;2.47;;
10847;SDS011;5477;48.806;9.154;2023-06-19T14:21:05;2.95;;;2.70;;
10847;SDS011;5477;48.806;9.154;2023-06-19T14:23:33;3.45;;;3.17;;
10847;SDS011;5477;48.806;9.154;2023-06-19T14:26:06;4.35;;;2.90;;
10847;SDS011;5477;48.806;9.154;2023-06-19T14:28:35;5.40;;;2.80;;
10847;SDS011;5477;48.806;9.154;2023-06-19T14:31:05;3.63;;;2.42;;
10847;SDS011;5477;48.806;9.154;2023-06-19T14:33:33;3.75;;;2.55;;
10847;SDS011;5477;48.806;9.154;2023-06-19T14:36:02;2.72;;;2.50;;
10847;SDS011;5477;48.806;9.154;2023-06-19T14:38:30;2.88;;;2.67;;
10847;SDS011;5477;48.806;9.154;2023-06-19T14:41:00;2.78;;;2.58;;
10847;SDS011;5477;48.806;9.154;2023-06-19T14:43:28;2.95;;;2.28;;
10847;SDS011;5477;48.806;9.154;2023-06-19T14:46:00;3.67;;;2.75;;
10847;SDS011;5477;48.806;9.154;2023-06-19T14:48:30;2.67;;;2.35;;
10847;SDS011;5477;48.806;9.154;2023-06-19T14:50:58;3.67;;;2.70;;
10847;SDS011;5477;48.806;9.154;2023-06-19T14:53:27;4.10;;;2.53;;
10847;SDS011;5477;48.806;9.154;2023-06-19T14:55:55;3.65;;;2.65;;
10847;SDS011;5477;48.806;9.154;2023-06-19T14:58:23;3.30;;;2.70;;
10847;SDS011;5477;48.806;9.154;2023-06-19T15:00:54;2.60;;;2.40;;
10847;SDS011;5477;48.806;9.154;2023-06-19T15:03:25;4.68;;;2.90;;
10847;SDS011;5477;48.806;9.154;2023-06-19T15:05:53;2.75;;;2.55;;
10847;SDS011;5477;48.806;9.154;2023-06-19T15:08:21;4.63;;;2.70;;
10847;SDS011;5477;48.806;9.154;2023-06-19T15:10:50;3.00;;;2.80;;
10847;SDS011;5477;48.806;9.154;2023-06-19T15:13:18;5.32;;;3.13;;